createdAt,value
2023-04-19T00:03:26.685Z,44.19
2023-04-19T00:07:43.640Z,44.66
2023-04-19T00:12:00.003Z,44.67
2023-04-19T00:16:16.669Z,44.70
2023-04-19T00:20:33.467Z,45.21
2023-04-19T00:24:49.810Z,45.27
2023-04-19T00:29:06.096Z,44.96
2023-04-19T00:33:22.381Z,44.78
2023-04-19T00:37:38.665Z,45.51
2023-04-19T00:41:55.671Z,45.90
2023-04-19T00:46:12.112Z,46.48
2023-04-19T00:50:28.920Z,46.30
2023-04-19T00:54:45.586Z,47.34
2023-04-19T00:59:02.343Z,47.15
2023-04-19T01:03:18.763Z,47.74
2023-04-19T01:07:35.661Z,47.45
2023-04-19T01:11:52.224Z,47.77
2023-04-19T01:16:08.792Z,47.89
2023-04-19T01:20:25.207Z,47.69
2023-04-19T01:24:41.418Z,48.00
2023-04-19T01:28:57.669Z,47.68
2023-04-19T01:33:13.823Z,53.74
2023-04-19T01:37:30.083Z,47.96
2023-04-19T01:41:46.518Z,47.72
2023-04-19T01:46:02.862Z,47.95
2023-04-19T01:50:19.217Z,48.16
2023-04-19T01:54:35.603Z,48.88
2023-04-19T01:58:51.946Z,49.17
2023-04-19T02:03:08.365Z,49.40
2023-04-19T02:07:24.714Z,50.22
2023-04-19T02:11:41.135Z,49.91
2023-04-19T02:15:57.351Z,50.26
2023-04-19T02:20:13.816Z,50.07
2023-04-19T02:24:30.122Z,49.46
2023-04-19T02:28:46.327Z,49.99
2023-04-19T02:33:02.681Z,49.61
2023-04-19T02:37:19.270Z,49.87
2023-04-19T02:41:35.563Z,49.97
2023-04-19T02:45:52.218Z,51.04
2023-04-19T02:50:09.088Z,51.56
2023-04-19T02:54:25.299Z,52.06
2023-04-19T02:58:41.535Z,52.50
2023-04-19T03:02:58.205Z,53.03
2023-04-19T03:07:14.730Z,53.19
2023-04-19T03:11:31.028Z,53.31
2023-04-19T03:15:48.534Z,52.76
2023-04-19T03:20:10.007Z,53.25
2023-04-19T03:24:30.384Z,52.98
2023-04-19T03:28:46.761Z,53.21
2023-04-19T03:33:03.020Z,52.89
2023-04-19T03:37:19.303Z,53.36
2023-04-19T03:41:35.590Z,54.05
2023-04-19T03:45:52.060Z,54.85
2023-04-19T03:50:08.950Z,54.48
2023-04-19T03:54:25.148Z,54.75
2023-04-19T03:58:42.695Z,54.66
2023-04-19T04:02:59.409Z,54.47
2023-04-19T04:07:16.178Z,54.47
2023-04-19T04:11:32.487Z,55.48
2023-04-19T04:15:48.912Z,55.89
2023-04-19T04:20:05.984Z,56.06
2023-04-19T04:24:22.595Z,56.23
2023-04-19T04:28:38.903Z,56.39
2023-04-19T04:32:58.336Z,56.42
2023-04-19T04:37:14.730Z,56.45
2023-04-19T04:41:33.647Z,56.61
2023-04-19T04:45:50.302Z,56.89
2023-04-19T04:50:07.695Z,57.77
2023-04-19T04:54:23.935Z,58.01
2023-04-19T04:58:40.121Z,57.44
2023-04-19T05:02:56.389Z,57.88
2023-04-19T05:07:12.901Z,57.04
2023-04-19T05:11:29.142Z,56.91
2023-04-19T05:15:45.437Z,56.48
2023-04-19T05:20:01.949Z,56.66
2023-04-19T05:24:19.310Z,56.44
2023-04-19T05:28:35.585Z,56.26
2023-04-19T05:32:52.921Z,56.55
2023-04-19T05:37:09.161Z,56.31
2023-04-19T05:41:25.987Z,56.95
2023-04-19T05:45:42.234Z,56.28
2023-04-19T05:49:58.471Z,56.41
2023-04-19T05:54:15.123Z,55.41
2023-04-19T05:58:31.588Z,54.99
2023-04-19T06:02:48.025Z,55.09
2023-04-19T06:07:06.179Z,54.34
2023-04-19T06:11:29.188Z,54.39
2023-04-19T06:15:55.492Z,53.90
2023-04-19T06:20:12.539Z,54.73
2023-04-19T06:24:28.799Z,52.33
2023-04-19T06:28:44.947Z,51.06
2023-04-19T06:33:01.229Z,56.12
2023-04-19T06:37:17.487Z,51.86
2023-04-19T06:41:33.730Z,51.94
2023-04-19T06:45:49.993Z,49.18
2023-04-19T06:50:06.931Z,47.42
2023-04-19T06:54:23.287Z,46.73
2023-04-19T06:58:39.428Z,46.46
2023-04-19T07:02:55.911Z,47.20
2023-04-19T07:07:12.204Z,46.54
2023-04-19T07:11:28.550Z,44.77
2023-04-19T07:15:44.795Z,43.09
2023-04-19T07:20:01.009Z,43.96
2023-04-19T07:24:17.833Z,44.52
2023-04-19T07:28:34.280Z,43.78
2023-04-19T07:32:52.867Z,41.63
2023-04-19T07:37:10.619Z,42.17
2023-04-19T07:41:26.801Z,40.55
2023-04-19T07:45:43.149Z,45.06
2023-04-19T07:49:59.483Z,47.30
2023-04-19T07:54:21.085Z,46.58
2023-04-19T07:58:38.454Z,45.77
2023-04-19T08:02:54.918Z,45.96
2023-04-19T08:07:12.103Z,44.55
2023-04-19T08:11:28.483Z,45.17
2023-04-19T08:20:06.968Z,42.29
2023-04-19T08:24:23.425Z,44.44
2023-04-19T08:28:39.743Z,44.10
2023-04-19T08:32:57.261Z,44.43
2023-04-19T08:37:13.788Z,45.00
2023-04-19T08:41:30.910Z,46.33
2023-04-19T08:45:51.226Z,44.88
2023-04-19T08:50:24.190Z,42.70
2023-04-19T08:54:46.380Z,44.45
2023-04-19T08:59:15.595Z,44.70
2023-04-19T09:03:44.314Z,43.17
2023-04-19T09:08:25.462Z,45.45
2023-04-19T09:12:42.347Z,42.77
2023-04-19T09:17:17.641Z,43.26
2023-04-19T09:21:34.402Z,45.10
2023-04-19T09:30:31.177Z,43.19
2023-04-19T09:35:00.571Z,40.73
2023-04-19T09:39:33.204Z,41.83
2023-04-19T09:48:09.149Z,42.60
2023-04-19T09:52:26.506Z,42.69
2023-04-19T09:56:43.033Z,42.62
2023-04-19T10:01:10.650Z,42.40
2023-04-19T10:05:32.254Z,41.47
2023-04-19T10:09:54.140Z,40.15
2023-04-19T10:14:12.182Z,37.90
2023-04-19T10:18:28.577Z,39.35
2023-04-19T10:22:44.735Z,37.15
2023-04-19T10:27:13.974Z,36.83
2023-04-19T10:31:30.477Z,38.50
2023-04-19T10:35:46.863Z,37.34
2023-04-19T10:40:04.687Z,37.63
2023-04-19T10:44:20.947Z,36.34
2023-04-19T10:48:55.680Z,34.39
2023-04-19T10:53:46.091Z,33.39
2023-04-19T10:58:07.020Z,33.51
2023-04-19T11:02:23.461Z,34.98
2023-04-19T11:07:04.149Z,36.96
2023-04-19T11:11:21.881Z,37.39
2023-04-19T11:15:43.964Z,38.12
2023-04-19T11:20:09.610Z,37.66
2023-04-19T11:24:26.047Z,35.36
2023-04-19T11:28:44.859Z,35.25
2023-04-19T11:33:01.301Z,34.38
2023-04-19T11:37:17.542Z,35.60
2023-04-19T11:41:39.804Z,36.21
2023-04-19T11:45:56.117Z,35.04
2023-04-19T11:50:31.226Z,35.69
2023-04-19T11:54:48.227Z,34.85
2023-04-19T11:59:04.583Z,35.71
2023-04-19T12:03:26.532Z,36.33
2023-04-19T12:08:06.985Z,35.54
2023-04-19T12:12:35.153Z,36.63
2023-04-19T12:17:07.879Z,36.71
2023-04-19T12:21:28.939Z,37.68
2023-04-19T12:25:47.189Z,38.28
2023-04-19T12:30:04.505Z,37.85
2023-04-19T12:34:21.107Z,37.87
2023-04-19T12:38:37.865Z,37.20
2023-04-19T12:42:54.405Z,38.71
2023-04-19T12:47:10.592Z,39.06
2023-04-19T12:51:28.178Z,37.18
2023-04-19T12:55:49.215Z,35.29
2023-04-19T13:00:07.499Z,35.28
2023-04-19T13:04:24.215Z,34.59
2023-04-19T13:08:46.196Z,33.99
2023-04-19T13:13:03.984Z,38.46
2023-04-19T13:17:21.084Z,39.96
2023-04-19T13:21:37.303Z,39.93
2023-04-19T13:25:53.629Z,39.53
2023-04-19T13:30:10.406Z,40.41
2023-04-19T13:34:26.910Z,40.24
2023-04-19T13:38:43.160Z,40.13
2023-04-19T13:42:59.713Z,40.71
2023-04-19T13:47:15.970Z,41.88
2023-04-19T13:51:46.527Z,41.40
2023-04-19T13:56:09.516Z,41.95
2023-04-19T14:00:25.950Z,41.43
2023-04-19T14:04:42.240Z,40.76
2023-04-19T14:08:58.606Z,41.02
2023-04-19T14:13:14.831Z,41.55
2023-04-19T14:17:31.103Z,39.58
2023-04-19T14:21:47.326Z,40.30
2023-04-19T14:26:03.580Z,40.47
2023-04-19T14:30:22.050Z,41.73
2023-04-19T14:34:38.562Z,41.17
2023-04-19T14:38:54.807Z,40.83
2023-04-19T14:43:15.241Z,41.32
2023-04-19T14:47:31.551Z,41.66
2023-04-19T14:51:47.818Z,43.08
2023-04-19T14:56:06.060Z,43.56
2023-04-19T15:00:22.430Z,44.63
2023-04-19T15:04:40.996Z,44.25
2023-04-19T15:08:57.660Z,44.01
2023-04-19T15:13:13.976Z,45.84
2023-04-19T15:17:30.322Z,44.55
2023-04-19T15:21:46.785Z,45.51
2023-04-19T15:26:03.001Z,45.90
2023-04-19T15:30:19.308Z,48.21
2023-04-19T15:34:35.699Z,49.18
2023-04-19T15:38:52.128Z,50.41
2023-04-19T15:43:08.508Z,49.09
2023-04-19T15:47:24.870Z,49.32
2023-04-19T15:51:41.592Z,47.87
2023-04-19T15:55:58.458Z,50.53
2023-04-19T16:00:15.366Z,50.40
2023-04-19T16:04:32.258Z,50.71
2023-04-19T16:08:48.589Z,49.12
2023-04-19T16:13:06.107Z,47.31
2023-04-19T16:17:22.415Z,47.12
2023-04-19T16:21:38.770Z,46.25
2023-04-19T16:25:56.690Z,44.92
2023-04-19T16:30:14.598Z,44.85
2023-04-19T16:34:30.819Z,45.38
2023-04-19T16:38:47.062Z,46.98
2023-04-19T16:43:05.041Z,48.13
2023-04-19T16:47:22.118Z,48.61
2023-04-19T16:51:38.538Z,49.73
2023-04-19T16:55:56.508Z,49.20
2023-04-19T17:00:13.529Z,49.86
2023-04-19T17:04:30.061Z,49.86
2023-04-19T17:08:46.458Z,51.54
2023-04-19T17:13:02.767Z,51.54
2023-04-19T17:17:20.224Z,50.96
2023-04-19T17:21:36.987Z,51.07
2023-04-19T17:25:53.214Z,51.07
2023-04-19T17:30:09.878Z,51.17
2023-04-19T17:34:26.067Z,50.17
2023-04-19T17:38:42.239Z,50.91
2023-04-19T17:42:58.627Z,52.54
2023-04-19T17:47:14.891Z,52.14
2023-04-19T17:51:31.424Z,52.51
2023-04-19T17:55:48.218Z,53.91
2023-04-19T18:00:07.854Z,53.73
2023-04-19T18:04:24.483Z,53.23
2023-04-19T18:08:40.770Z,53.71
2023-04-19T18:12:56.938Z,52.90
2023-04-19T18:17:13.153Z,54.44
2023-04-19T18:21:29.415Z,53.14
2023-04-19T18:25:52.410Z,54.44
2023-04-19T18:30:09.190Z,54.16
2023-04-19T18:34:25.432Z,53.38
2023-04-19T18:38:41.950Z,53.46
2023-04-19T18:42:58.262Z,53.19
2023-04-19T18:47:14.448Z,53.06
2023-04-19T18:51:30.978Z,56.28
2023-04-19T18:55:48.730Z,54.46
2023-04-19T19:00:11.326Z,53.64
2023-04-19T19:04:46.711Z,54.00
2023-04-19T19:09:04.165Z,54.69
2023-04-19T19:13:20.517Z,53.81
2023-04-19T19:17:36.788Z,54.74
2023-04-19T19:21:53.172Z,54.67
2023-04-19T19:26:11.530Z,54.81
2023-04-19T19:30:29.775Z,54.80
2023-04-19T19:39:05.780Z,54.59
2023-04-19T19:43:22.067Z,54.87
2023-04-19T19:47:44.486Z,54.48
2023-04-19T19:52:02.427Z,54.80
2023-04-19T19:56:22.901Z,55.07
2023-04-19T20:00:46.965Z,54.86
2023-04-19T20:05:06.842Z,54.84
2023-04-19T20:09:24.740Z,56.10
2023-04-19T20:13:40.953Z,55.22
2023-04-19T20:17:57.489Z,55.85
2023-04-19T20:22:13.837Z,55.96
2023-04-19T20:26:30.136Z,55.56
2023-04-19T20:30:46.384Z,56.92
2023-04-19T20:35:08.647Z,56.13
2023-04-19T20:39:25.540Z,56.30
2023-04-19T20:43:41.763Z,55.72
2023-04-19T20:47:58.779Z,55.77
2023-04-19T20:52:15.264Z,54.43
2023-04-19T20:56:31.472Z,54.79
2023-04-19T21:00:50.097Z,54.36
2023-04-19T21:05:06.734Z,55.03
2023-04-19T21:09:23.067Z,55.64
2023-04-19T21:13:39.236Z,55.84
2023-04-19T21:17:55.473Z,55.59
2023-04-19T21:22:11.885Z,55.85
2023-04-19T21:26:28.189Z,55.77
2023-04-19T21:30:44.401Z,56.41
2023-04-19T21:35:01.617Z,55.63
2023-04-19T21:39:17.990Z,55.58
2023-04-19T21:43:34.542Z,55.35
2023-04-19T21:47:51.224Z,55.39
2023-04-19T21:52:08.224Z,55.87
2023-04-19T21:56:24.423Z,55.74
2023-04-19T22:00:40.965Z,55.32
2023-04-19T22:05:00.441Z,55.53
2023-04-19T22:09:17.069Z,55.02
2023-04-19T22:13:33.710Z,55.10
2023-04-19T22:17:50.559Z,54.53
2023-04-19T22:22:06.875Z,55.29
2023-04-19T22:26:23.211Z,55.44
2023-04-19T22:30:39.457Z,60.80
2023-04-19T22:34:56.056Z,56.22
2023-04-19T22:39:12.533Z,56.29
2023-04-19T22:43:28.763Z,56.26
2023-04-19T22:47:45.484Z,56.39
2023-04-19T22:52:02.062Z,56.87
2023-04-19T22:56:18.343Z,56.74
2023-04-19T23:00:38.006Z,56.72
2023-04-19T23:04:54.681Z,57.31
2023-04-19T23:09:13.896Z,57.30
2023-04-19T23:13:30.262Z,58.39
2023-04-19T23:17:46.696Z,57.99
2023-04-19T23:22:03.025Z,58.04
2023-04-19T23:26:19.302Z,58.39
2023-04-19T23:30:35.650Z,57.93
2023-04-19T23:34:51.981Z,57.90
2023-04-19T23:39:08.213Z,58.35
2023-04-19T23:43:24.523Z,58.05
2023-04-19T23:47:40.765Z,58.04
2023-04-19T23:51:57.140Z,58.70
2023-04-19T23:56:13.456Z,58.74
